createdAt,value
2018-05-12T00:01:58.953Z,11.00
2018-05-12T00:04:26.451Z,10.90
2018-05-12T00:06:54.719Z,10.80
2018-05-12T00:09:22.208Z,10.80
2018-05-12T00:11:50.456Z,10.70
2018-05-12T00:14:17.959Z,10.70
2018-05-12T00:16:45.442Z,10.70
2018-05-12T00:19:12.948Z,10.60
2018-05-12T00:21:41.202Z,10.60
2018-05-12T00:24:08.697Z,10.50
2018-05-12T00:26:36.181Z,10.50
2018-05-12T00:29:03.668Z,10.50
2018-05-12T00:31:31.161Z,10.50
2018-05-12T00:33:59.405Z,10.50
2018-05-12T00:36:26.905Z,10.50
2018-05-12T00:38:55.150Z,10.50
2018-05-12T00:41:22.640Z,10.50
2018-05-12T00:43:50.893Z,10.50
2018-05-12T00:46:18.389Z,10.40
2018-05-12T00:48:46.635Z,10.40
2018-05-12T00:51:14.913Z,10.40
2018-05-12T00:53:42.393Z,10.30
2018-05-12T00:56:10.656Z,10.30
2018-05-12T00:58:38.911Z,10.20
2018-05-12T01:01:06.419Z,10.10
2018-05-12T01:03:33.910Z,10.10
2018-05-12T01:06:01.405Z,10.10
2018-05-12T01:08:28.910Z,10.00
2018-05-12T01:10:56.412Z,10.00
2018-05-12T01:13:23.895Z,10.00
2018-05-12T01:15:52.149Z,9.90
2018-05-12T01:18:19.623Z,9.90
2018-05-12T01:20:47.124Z,9.90
2018-05-12T01:23:14.593Z,9.90
2018-05-12T01:25:42.089Z,9.90
2018-05-12T01:28:09.566Z,9.80
2018-05-12T01:30:37.829Z,9.70
2018-05-12T01:33:05.310Z,9.70
2018-05-12T01:35:33.570Z,9.70
2018-05-12T01:38:01.821Z,9.70
2018-05-12T01:40:29.324Z,9.60
2018-05-12T01:42:57.574Z,9.70
2018-05-12T01:45:25.049Z,9.60
2018-05-12T01:47:53.304Z,9.60
2018-05-12T01:50:20.782Z,9.60
2018-05-12T01:52:49.782Z,9.40
2018-05-12T01:55:18.020Z,9.40
2018-05-12T01:57:45.528Z,9.40
2018-05-12T02:00:13.765Z,9.40
2018-05-12T02:02:41.261Z,9.40
2018-05-12T02:05:09.507Z,9.40
2018-05-12T02:07:36.993Z,9.40
2018-05-12T02:10:05.239Z,9.40
2018-05-12T02:12:32.726Z,9.40
2018-05-12T02:15:00.969Z,9.50
2018-05-12T02:17:28.463Z,9.40
2018-05-12T02:19:56.712Z,9.40
2018-05-12T02:22:24.201Z,9.40
2018-05-12T02:24:52.465Z,9.40
2018-05-12T02:27:20.729Z,9.40
2018-05-12T02:29:48.208Z,9.40
2018-05-12T02:32:16.469Z,9.50
2018-05-12T02:34:43.949Z,9.50
2018-05-12T02:37:12.205Z,9.50
2018-05-12T02:39:39.676Z,9.40
2018-05-12T02:42:07.939Z,9.50
2018-05-12T02:44:35.423Z,9.40
2018-05-12T02:47:03.687Z,9.40
2018-05-12T02:49:31.939Z,9.30
2018-05-12T02:52:00.952Z,9.20
2018-05-12T02:54:29.213Z,9.20
2018-05-12T02:56:56.709Z,9.10
2018-05-12T02:59:24.967Z,9.10
2018-05-12T03:01:53.216Z,9.00
2018-05-12T03:04:20.714Z,8.90
2018-05-12T03:06:48.961Z,8.90
2018-05-12T03:09:16.462Z,8.80
2018-05-12T03:11:44.712Z,8.80
2018-05-12T03:14:12.210Z,8.70
2018-05-12T03:16:39.694Z,8.80
2018-05-12T03:19:07.184Z,8.80
2018-05-12T03:21:34.679Z,8.70
2018-05-12T03:24:02.932Z,8.60
2018-05-12T03:26:31.178Z,8.60
2018-05-12T03:28:58.674Z,8.60
2018-05-12T03:31:26.921Z,8.60
2018-05-12T03:33:54.414Z,8.50
2018-05-12T03:36:22.661Z,8.60
2018-05-12T03:38:50.147Z,8.50
2018-05-12T03:41:18.435Z,8.60
2018-05-12T03:43:46.689Z,8.60
2018-05-12T03:46:14.169Z,8.50
2018-05-12T03:48:42.429Z,8.50
2018-05-12T03:51:11.409Z,8.50
2018-05-12T03:53:38.905Z,8.50
2018-05-12T03:56:06.395Z,8.50
2018-05-12T03:58:33.889Z,8.50
2018-05-12T04:01:01.369Z,8.50
2018-05-12T04:03:29.634Z,8.50
2018-05-12T04:06:08.829Z,8.50
2018-05-12T04:08:48.165Z,8.60
2018-05-12T04:11:27.496Z,8.60
2018-05-12T04:13:54.989Z,8.60
2018-05-12T04:16:22.470Z,8.60
2018-05-12T04:18:50.730Z,8.70
2018-05-12T04:21:18.206Z,8.60
2018-05-12T04:23:46.483Z,8.80
2018-05-12T04:26:14.726Z,8.80
2018-05-12T04:28:42.206Z,8.80
2018-05-12T04:31:11.313Z,8.90
2018-05-12T04:33:39.561Z,9.00
2018-05-12T04:36:07.057Z,8.90
2018-05-12T04:38:35.310Z,9.10
2018-05-12T04:41:02.805Z,9.10
2018-05-12T04:43:31.045Z,9.30
2018-05-12T04:45:58.537Z,9.30
2018-05-12T04:48:26.838Z,9.50
2018-05-12T04:50:54.337Z,9.50
2018-05-12T04:53:21.809Z,9.60
2018-05-12T04:55:50.822Z,9.70
2018-05-12T04:58:19.061Z,9.80
2018-05-12T05:00:47.539Z,9.80
2018-05-12T05:03:15.022Z,9.90
2018-05-12T05:05:42.513Z,10.00
2018-05-12T05:08:10.028Z,10.10
2018-05-12T05:10:37.513Z,10.20
2018-05-12T05:13:05.795Z,10.40
2018-05-12T05:15:33.341Z,10.30
2018-05-12T05:18:00.830Z,10.50
2018-05-12T05:20:29.089Z,10.70
2018-05-12T05:22:57.343Z,10.90
2018-05-12T05:25:24.841Z,10.80
2018-05-12T05:27:52.318Z,11.00
2018-05-12T05:30:19.814Z,11.20
2018-05-12T05:32:47.305Z,11.30
2018-05-12T05:35:15.652Z,11.60
2018-05-12T05:37:43.832Z,11.80
2018-05-12T05:40:11.339Z,11.70
2018-05-12T05:42:38.821Z,11.90
2018-05-12T05:45:06.318Z,12.10
2018-05-12T05:47:33.799Z,12.30
2018-05-12T05:50:02.071Z,12.70
2018-05-12T05:52:30.342Z,12.90
2018-05-12T05:54:58.611Z,13.10
2018-05-12T05:57:26.106Z,13.10
2018-05-12T05:59:53.598Z,13.30
2018-05-12T06:02:21.099Z,13.60
2018-05-12T06:07:42.549Z,13.90
2018-05-12T06:10:10.792Z,14.30
2018-05-12T06:12:38.297Z,14.20
2018-05-12T06:15:05.778Z,14.40
2018-05-12T06:17:33.284Z,14.40
2018-05-12T06:20:00.757Z,14.60
2018-05-12T06:22:29.037Z,14.90
2018-05-12T06:24:57.286Z,15.00
2018-05-12T06:27:24.790Z,15.00
2018-05-12T06:29:52.278Z,15.20
2018-05-12T06:32:19.773Z,15.40
2018-05-12T06:34:48.030Z,15.70
2018-05-12T06:37:15.533Z,15.70
2018-05-12T06:39:43.779Z,16.00
2018-05-12T06:42:11.273Z,16.00
2018-05-12T06:44:39.527Z,16.20
2018-05-12T06:47:08.534Z,16.40
2018-05-12T06:49:36.776Z,16.60
2018-05-12T06:52:04.277Z,16.50
2018-05-12T06:54:32.522Z,16.90
2018-05-12T06:57:00.025Z,16.90
2018-05-12T06:59:27.509Z,17.10
2018-05-12T07:01:55.005Z,17.20
2018-05-12T07:04:22.485Z,17.40
2018-05-12T07:06:50.751Z,17.60
2018-05-12T07:09:19.011Z,17.70
2018-05-12T07:11:46.509Z,17.60
2018-05-12T07:14:14.005Z,17.80
2018-05-12T07:16:41.489Z,17.90
2018-05-12T07:19:08.989Z,18.00
2018-05-12T07:21:37.242Z,18.30
2018-05-12T07:24:05.501Z,18.40
2018-05-12T07:26:32.985Z,18.30
2018-05-12T07:29:01.249Z,18.50
2018-05-12T07:31:28.734Z,18.50
2018-05-12T07:33:57.007Z,18.90
2018-05-12T07:36:25.256Z,19.00
2018-05-12T07:38:52.767Z,18.90
2018-05-12T07:41:20.249Z,19.10
2018-05-12T07:43:47.749Z,19.00
2018-05-12T07:46:16.006Z,19.20
2018-05-12T07:48:43.505Z,19.20
2018-05-12T07:51:10.993Z,19.40
2018-05-12T07:53:38.488Z,19.50
2018-05-12T07:56:05.969Z,19.60
2018-05-12T07:58:34.257Z,19.70
2018-05-12T08:01:02.510Z,19.70
2018-05-12T08:03:30.028Z,19.70
2018-05-12T08:05:58.309Z,19.80
2018-05-12T08:08:25.807Z,20.00
2018-05-12T08:10:53.293Z,20.00
2018-05-12T08:13:21.558Z,20.50
2018-05-12T08:15:49.807Z,20.70
2018-05-12T08:18:17.308Z,20.60
2018-05-12T08:20:44.793Z,20.90
2018-05-12T08:23:12.294Z,20.80
2018-05-12T08:25:39.781Z,20.70
2018-05-12T08:28:07.297Z,20.70
2018-05-12T08:30:34.780Z,20.80
2018-05-12T08:33:02.270Z,21.00
2018-05-12T08:35:29.772Z,21.10
2018-05-12T08:37:57.266Z,21.20
2018-05-12T08:40:25.678Z,21.30
2018-05-12T08:42:54.749Z,21.40
2018-05-12T08:45:22.263Z,21.40
2018-05-12T08:47:49.757Z,21.60
2018-05-12T08:50:18.149Z,21.60
2018-05-12T08:52:46.399Z,21.70
2018-05-12T08:55:14.746Z,21.60
2018-05-12T08:57:42.205Z,21.50
2018-05-12T09:00:09.709Z,21.60
2018-05-12T09:02:37.961Z,21.70
2018-05-12T09:05:05.548Z,21.60
2018-05-12T09:07:33.803Z,21.70
2018-05-12T09:10:01.312Z,21.60
2018-05-12T09:12:28.801Z,21.70
2018-05-12T09:14:56.309Z,21.70
2018-05-12T09:17:24.577Z,21.90
2018-05-12T09:19:52.862Z,21.90
2018-05-12T09:22:20.369Z,21.80
2018-05-12T09:24:47.881Z,21.80
2018-05-12T09:27:16.140Z,21.90
2018-05-12T09:29:43.654Z,21.90
2018-05-12T09:32:11.141Z,22.00
2018-05-12T09:34:38.653Z,22.00
2018-05-12T09:37:06.142Z,22.20
2018-05-12T09:39:33.662Z,22.30
2018-05-12T09:42:01.153Z,22.40
2018-05-12T09:44:28.661Z,22.50
2018-05-12T09:46:56.145Z,22.60
2018-05-12T09:49:23.650Z,22.70
2018-05-12T09:51:51.125Z,22.80
2018-05-12T09:54:18.633Z,22.90
2018-05-12T09:56:46.114Z,23.00
2018-05-12T09:59:13.598Z,23.00
2018-05-12T10:01:41.094Z,23.10
2018-05-12T10:04:09.345Z,23.00
2018-05-12T10:06:36.841Z,23.00
2018-05-12T10:09:06.049Z,22.90
2018-05-12T10:11:33.545Z,22.80
2018-05-12T10:14:01.021Z,23.00
2018-05-12T10:16:28.532Z,23.00
2018-05-12T10:18:56.048Z,22.90
2018-05-12T10:21:24.309Z,22.90
2018-05-12T10:23:51.804Z,22.90
2018-05-12T10:26:20.113Z,22.90
2018-05-12T10:28:48.333Z,22.90
2018-05-12T10:31:15.839Z,22.90
2018-05-12T10:33:43.332Z,23.00
2018-05-12T10:36:10.833Z,23.10
2018-05-12T10:38:39.085Z,23.30
2018-05-12T10:41:06.583Z,23.20
2018-05-12T10:43:34.078Z,23.40
2018-05-12T10:46:02.118Z,23.50
2018-05-12T10:48:29.605Z,23.60
2018-05-12T10:50:57.105Z,23.50
2018-05-12T10:53:24.590Z,23.50
2018-05-12T10:55:52.089Z,23.50
2018-05-12T10:58:19.577Z,23.40
2018-05-12T11:00:47.857Z,23.30
2018-05-12T11:03:15.341Z,23.20
2018-05-12T11:05:43.697Z,23.30
2018-05-12T11:08:11.181Z,23.30
2018-05-12T11:10:39.446Z,23.50
2018-05-12T11:13:07.697Z,23.50
2018-05-12T11:15:35.204Z,23.40
2018-05-12T11:18:02.697Z,23.50
2018-05-12T11:20:30.201Z,23.60
2018-05-12T11:22:58.472Z,23.80
2018-05-12T11:25:26.723Z,23.80
2018-05-12T11:27:54.221Z,23.70
2018-05-12T11:30:22.470Z,23.70
2018-05-12T11:32:49.975Z,23.60
2018-05-12T11:35:17.459Z,23.80
2018-05-12T11:37:44.970Z,23.90
2018-05-12T11:40:13.218Z,24.20
2018-05-12T11:42:40.718Z,24.20
2018-05-12T11:45:08.201Z,24.30
2018-05-12T11:47:35.700Z,24.20
2018-05-12T11:50:03.797Z,24.20
2018-05-12T11:52:32.057Z,24.30
2018-05-12T11:55:00.313Z,24.20
2018-05-12T11:57:27.808Z,24.10
2018-05-12T11:59:56.057Z,24.20
2018-05-12T12:02:23.563Z,24.10
2018-05-12T12:04:51.039Z,24.30
2018-05-12T12:07:18.538Z,24.40
2018-05-12T12:09:46.021Z,24.50
2018-05-12T12:12:14.281Z,24.50
2018-05-12T12:14:41.769Z,24.50
2018-05-12T12:17:10.039Z,24.60
2018-05-12T12:19:38.285Z,24.60
2018-05-12T12:22:05.782Z,24.60
2018-05-12T12:24:33.277Z,24.50
2018-05-12T12:27:00.772Z,24.50
2018-05-12T12:29:28.253Z,24.50
2018-05-12T12:31:56.521Z,24.40
2018-05-12T12:34:24.769Z,24.40
2018-05-12T12:36:53.038Z,24.50
2018-05-12T12:39:20.521Z,24.40
2018-05-12T12:41:48.028Z,24.60
2018-05-12T12:44:15.513Z,24.60
2018-05-12T12:46:43.005Z,24.50
2018-05-12T12:49:10.498Z,24.50
2018-05-12T12:51:38.023Z,24.50
2018-05-12T12:54:05.494Z,24.50
2018-05-12T12:56:33.741Z,24.60
2018-05-12T12:59:01.238Z,24.50
2018-05-12T13:01:29.476Z,24.70
2018-05-12T13:03:56.971Z,24.70
2018-05-12T13:06:25.210Z,24.60
2018-05-12T13:08:52.705Z,24.60
2018-05-12T13:11:20.979Z,24.40
2018-05-12T13:13:49.238Z,24.40
2018-05-12T13:16:16.722Z,24.30
2018-05-12T13:18:44.981Z,24.50
2018-05-12T13:21:12.462Z,24.50
2018-05-12T13:23:39.968Z,24.70
2018-05-12T13:26:07.440Z,24.60
2018-05-12T13:28:34.937Z,24.70
2018-05-12T13:31:03.172Z,24.70
2018-05-12T13:33:30.722Z,24.70
2018-05-12T13:35:58.165Z,24.80
2018-05-12T13:38:25.662Z,24.80
2018-05-12T13:40:53.142Z,24.80
2018-05-12T13:43:21.407Z,24.70
2018-05-12T13:45:49.303Z,24.60
2018-05-12T13:48:16.797Z,24.70
2018-05-12T13:50:44.280Z,24.70
2018-05-12T13:53:11.778Z,24.70
2018-05-12T13:55:39.287Z,24.80
2018-05-12T13:58:06.781Z,24.90
2018-05-12T14:00:35.025Z,25.10
2018-05-12T14:03:02.522Z,25.00
2018-05-12T14:05:30.773Z,25.10
2018-05-12T14:07:58.274Z,25.10
2018-05-12T14:10:25.758Z,25.20
2018-05-12T14:12:53.237Z,25.10
2018-05-12T14:15:20.735Z,25.10
2018-05-12T14:17:49.011Z,25.10
2018-05-12T14:20:16.525Z,25.10
2018-05-12T14:22:44.006Z,25.10
2018-05-12T14:25:11.510Z,25.20
2018-05-12T14:27:38.999Z,25.30
2018-05-12T14:30:06.499Z,25.30
2018-05-12T14:32:34.758Z,25.20
2018-05-12T14:35:02.257Z,25.20
2018-05-12T14:37:29.738Z,25.10
2018-05-12T14:39:57.240Z,25.10
2018-05-12T14:42:24.720Z,25.00
2018-05-12T14:44:52.982Z,24.80
2018-05-12T14:47:20.458Z,24.70
2018-05-12T14:49:48.712Z,24.70
2018-05-12T14:52:16.195Z,24.60
2018-05-12T14:54:44.465Z,24.90
2018-05-12T14:57:12.710Z,25.00
2018-05-12T14:59:40.210Z,25.00
2018-05-12T15:02:08.460Z,25.10
2018-05-12T15:04:36.040Z,25.00
2018-05-12T15:07:04.293Z,25.00
2018-05-12T15:09:31.794Z,24.90
2018-05-12T15:11:59.289Z,25.00
2018-05-12T15:14:26.797Z,25.10
2018-05-12T15:16:55.037Z,25.30
2018-05-12T15:19:22.537Z,25.20
2018-05-12T15:21:50.776Z,25.30
2018-05-12T15:24:18.269Z,25.30
2018-05-12T15:26:46.529Z,25.20
2018-05-12T15:29:14.029Z,25.20
2018-05-12T15:31:41.515Z,25.30
2018-05-12T15:34:09.009Z,25.30
2018-05-12T15:36:36.490Z,25.40
2018-05-12T15:39:04.754Z,25.20
2018-05-12T15:41:32.234Z,25.10
2018-05-12T15:44:00.521Z,25.00
2018-05-12T15:46:28.013Z,24.90
2018-05-12T15:48:55.494Z,24.90
2018-05-12T15:51:22.993Z,25.00
2018-05-12T15:53:50.468Z,25.10
2018-05-12T15:56:17.963Z,25.10
2018-05-12T15:58:45.453Z,25.20
2018-05-12T16:01:13.712Z,25.20
2018-05-12T16:03:41.202Z,25.10
2018-05-12T16:06:09.467Z,25.20
2018-05-12T16:08:37.708Z,25.10
2018-05-12T16:11:05.206Z,25.10
2018-05-12T16:13:33.461Z,24.90
2018-05-12T16:16:00.953Z,24.90
2018-05-12T16:18:28.441Z,24.90
2018-05-12T16:20:55.945Z,24.90
2018-05-12T16:23:24.217Z,24.80
2018-05-12T16:25:51.778Z,24.80
2018-05-12T16:28:19.206Z,24.80
2018-05-12T16:30:46.700Z,24.70
2018-05-12T16:33:14.177Z,24.70
2018-05-12T16:35:42.437Z,24.60
2018-05-12T16:38:09.941Z,24.60
2018-05-12T16:40:37.433Z,24.60
2018-05-12T16:43:04.917Z,24.60
2018-05-12T16:45:33.189Z,24.60
2018-05-12T16:48:00.665Z,24.50
2018-05-12T16:50:28.925Z,24.70
2018-05-12T16:52:57.185Z,24.70
2018-05-12T16:55:24.681Z,24.60
2018-05-12T16:57:52.925Z,24.70
2018-05-12T17:00:20.421Z,24.60
2018-05-12T17:02:48.661Z,24.60
2018-05-12T17:05:16.157Z,24.50
2018-05-12T17:07:43.649Z,24.50
2018-05-12T17:10:11.135Z,24.50
2018-05-12T17:12:38.633Z,24.50
2018-05-12T17:15:06.882Z,24.60
2018-05-12T17:17:34.376Z,24.50
2018-05-12T17:20:01.860Z,24.60
2018-05-12T17:22:29.368Z,24.60
2018-05-12T17:24:56.854Z,24.50
2018-05-12T17:27:25.117Z,24.30
2018-05-12T17:29:53.437Z,24.20
2018-05-12T17:32:20.869Z,24.20
2018-05-12T17:34:48.349Z,24.20
2018-05-12T17:37:15.850Z,24.10
2018-05-12T17:39:43.320Z,24.00
2018-05-12T17:42:11.586Z,23.70
2018-05-12T17:44:39.069Z,23.70
2018-05-12T17:47:07.336Z,23.60
2018-05-12T17:49:35.585Z,23.60
2018-05-12T17:52:03.086Z,23.50
2018-05-12T17:54:30.569Z,23.50
2018-05-12T17:56:58.069Z,23.50
2018-05-12T17:59:25.557Z,23.40
2018-05-12T18:01:53.825Z,23.30
2018-05-12T18:04:22.065Z,23.30
2018-05-12T18:06:49.576Z,23.20
2018-05-12T18:09:17.829Z,23.10
2018-05-12T18:11:45.337Z,23.10
2018-05-12T18:14:12.818Z,23.10
2018-05-12T18:16:40.326Z,23.00
2018-05-12T18:19:08.572Z,22.90
2018-05-12T18:21:36.069Z,22.80
2018-05-12T18:24:04.473Z,22.80
2018-05-12T18:26:31.984Z,22.70
2018-05-12T18:28:59.468Z,22.70
2018-05-12T18:31:27.052Z,22.70
2018-05-12T18:33:54.541Z,22.60
2018-05-12T18:36:22.041Z,22.50
2018-05-12T18:38:50.317Z,22.30
2018-05-12T18:41:18.571Z,22.30
2018-05-12T18:43:46.096Z,22.20
2018-05-12T18:46:13.581Z,22.20
2018-05-12T18:48:41.087Z,22.10
2018-05-12T18:51:08.576Z,22.10
2018-05-12T18:53:36.076Z,22.00
2018-05-12T18:56:03.563Z,21.90
2018-05-12T18:58:31.069Z,21.80
2018-05-12T19:00:58.560Z,21.70
2018-05-12T19:03:26.841Z,21.50
2018-05-12T19:05:55.105Z,21.40
2018-05-12T19:08:23.444Z,21.30
2018-05-12T19:10:51.653Z,21.20
2018-05-12T19:13:19.164Z,21.10
2018-05-12T19:15:46.640Z,21.10
2018-05-12T19:18:14.146Z,20.90
2018-05-12T19:20:42.401Z,20.70
2018-05-12T19:23:09.923Z,20.60
2018-05-12T19:25:37.481Z,20.60
2018-05-12T19:28:04.977Z,20.40
2018-05-12T19:30:32.465Z,20.30
2018-05-12T19:33:00.737Z,20.10
2018-05-12T19:35:28.989Z,20.00
2018-05-12T19:37:56.477Z,20.00
2018-05-12T19:40:24.734Z,19.90
2018-05-12T19:42:52.230Z,19.90
2018-05-12T19:45:19.715Z,19.90
2018-05-12T19:47:47.225Z,19.80
2018-05-12T19:50:14.701Z,19.70
2018-05-12T19:52:42.964Z,19.60
2018-05-12T19:55:11.950Z,19.50
2018-05-12T19:57:39.464Z,19.40
2018-05-12T20:00:06.948Z,19.50
2018-05-12T20:02:34.439Z,19.40
2018-05-12T20:05:02.690Z,19.30
2018-05-12T20:07:30.184Z,19.20
2018-05-12T20:09:58.442Z,19.20
2018-05-12T20:12:25.946Z,19.10
2018-05-12T20:14:53.426Z,19.10
2018-05-12T20:17:20.908Z,19.10
2018-05-12T20:19:48.410Z,19.00
2018-05-12T20:22:15.880Z,19.00
2018-05-12T20:24:43.386Z,19.00
2018-05-12T20:27:10.870Z,18.90
2018-05-12T20:29:39.126Z,18.90
2018-05-12T20:32:06.605Z,18.80
2018-05-12T20:34:34.874Z,18.80
2018-05-12T20:37:03.130Z,18.80
2018-05-12T20:39:30.629Z,18.80
2018-05-12T20:41:58.878Z,18.80
2018-05-12T20:44:26.370Z,18.70
2018-05-12T20:46:53.854Z,18.70
2018-05-12T20:49:21.348Z,18.70
2018-05-12T20:51:48.872Z,18.70
2018-05-12T20:54:17.177Z,18.60
2018-05-12T20:56:44.661Z,18.60
2018-05-12T20:59:12.165Z,18.50
2018-05-12T21:01:39.649Z,18.50
2018-05-12T21:04:07.146Z,18.50
2018-05-12T21:06:35.398Z,18.50
2018-05-12T21:09:02.899Z,18.40
2018-05-12T21:11:31.157Z,18.40
2018-05-12T21:13:59.417Z,18.40
2018-05-12T21:16:26.904Z,18.30
2018-05-12T21:18:55.161Z,18.30
2018-05-12T21:21:22.639Z,18.30
2018-05-12T21:23:51.020Z,18.30
2018-05-12T21:26:18.409Z,18.30
2018-05-12T21:28:45.916Z,18.30
2018-05-12T21:31:13.397Z,18.40
2018-05-12T21:33:41.661Z,18.40
2018-05-12T21:36:09.926Z,18.40
2018-05-12T21:38:37.412Z,18.30
2018-05-12T21:41:05.673Z,18.30
2018-05-12T21:43:33.923Z,18.30
2018-05-12T21:46:01.547Z,18.20
2018-05-12T21:48:29.720Z,18.20
2018-05-12T21:50:57.224Z,18.20
2018-05-12T21:53:24.703Z,18.20
2018-05-12T21:55:53.008Z,18.10
2018-05-12T21:58:20.461Z,18.10
2018-05-12T22:00:47.963Z,18.00
2018-05-12T22:03:15.443Z,18.10
2018-05-12T22:05:42.933Z,18.00
2018-05-12T22:08:11.271Z,18.00
2018-05-12T22:10:38.676Z,17.90
2018-05-12T22:13:06.150Z,17.90
2018-05-12T22:15:33.641Z,17.90
2018-05-12T22:18:01.121Z,17.80
2018-05-12T22:20:29.386Z,17.70
2018-05-12T22:22:56.861Z,17.60
2018-05-12T22:25:24.361Z,17.60
2018-05-12T22:27:51.843Z,17.50
2018-05-12T22:30:19.320Z,17.40
2018-05-12T22:32:46.804Z,17.40
2018-05-12T22:35:15.049Z,17.30
2018-05-12T22:37:42.546Z,17.20
2018-05-12T22:40:10.792Z,17.20
2018-05-12T22:42:38.282Z,17.10
2018-05-12T22:45:06.530Z,17.00
2018-05-12T22:47:34.029Z,17.00
2018-05-12T22:50:02.264Z,17.00
2018-05-12T22:52:29.754Z,16.90
2018-05-12T22:54:57.998Z,16.90
2018-05-12T22:57:25.493Z,16.80
2018-05-12T22:59:53.741Z,16.70
2018-05-12T23:02:21.245Z,16.70
2018-05-12T23:04:48.721Z,16.60
2018-05-12T23:07:16.221Z,16.60
2018-05-12T23:09:43.705Z,16.50
2018-05-12T23:12:11.974Z,16.30
2018-05-12T23:14:40.211Z,16.30
2018-05-12T23:17:07.705Z,16.20
2018-05-12T23:19:35.185Z,16.20
2018-05-12T23:22:03.453Z,16.20
2018-05-12T23:24:31.705Z,16.10
2018-05-12T23:26:59.207Z,16.10
2018-05-12T23:29:26.704Z,16.10
2018-05-12T23:31:54.207Z,16.10
2018-05-12T23:34:22.453Z,16.00
2018-05-12T23:36:49.954Z,16.00
2018-05-12T23:39:17.435Z,16.00
2018-05-12T23:41:44.953Z,15.90
2018-05-12T23:44:13.200Z,15.70
2018-05-12T23:46:40.681Z,15.70
2018-05-12T23:49:08.295Z,15.70
2018-05-12T23:51:35.797Z,15.60
2018-05-12T23:54:03.288Z,15.60
2018-05-12T23:56:31.534Z,15.50
2018-05-12T23:58:59.029Z,15.40
